createdAt,value
2022-11-05T00:01:06.578Z,6.20
2022-11-05T00:05:30.481Z,6.10
2022-11-05T00:09:33.621Z,6.10
2022-11-05T00:13:53.771Z,6.00
2022-11-05T00:17:55.414Z,5.90
2022-11-05T00:22:15.666Z,5.90
2022-11-05T00:26:17.289Z,5.80
2022-11-05T00:30:24.793Z,5.80
2022-11-05T00:34:26.482Z,5.70
2022-11-05T00:38:30.405Z,5.60
2022-11-05T00:42:50.754Z,5.60
2022-11-05T00:47:15.321Z,5.50
2022-11-05T00:51:17.041Z,5.40
2022-11-05T00:55:18.664Z,5.40
2022-11-05T00:59:20.262Z,5.30
2022-11-05T01:03:25.791Z,5.30
2022-11-05T01:07:27.383Z,5.20
2022-11-05T01:11:36.811Z,5.20
2022-11-05T01:15:38.726Z,5.10
2022-11-05T01:19:40.426Z,5.10
2022-11-05T01:23:42.152Z,5.10
2022-11-05T01:27:43.802Z,5.00
2022-11-05T01:31:45.451Z,4.90
2022-11-05T01:35:47.097Z,4.90
2022-11-05T01:39:48.685Z,4.90
2022-11-05T01:43:55.110Z,4.80
2022-11-05T01:48:21.205Z,4.70
2022-11-05T01:52:24.068Z,4.70
2022-11-05T01:56:51.520Z,4.70
2022-11-05T02:00:55.090Z,4.70
2022-11-05T02:05:00.893Z,4.90
2022-11-05T02:09:02.480Z,4.80
2022-11-05T02:13:04.208Z,4.70
2022-11-05T02:17:16.135Z,4.70
2022-11-05T02:21:55.480Z,4.70
2022-11-05T02:26:35.181Z,4.70
2022-11-05T02:30:56.676Z,4.70
2022-11-05T02:35:18.249Z,4.80
2022-11-05T02:39:27.867Z,4.80
2022-11-05T02:43:45.717Z,4.80
2022-11-05T02:48:13.238Z,4.80
2022-11-05T02:52:24.005Z,4.70
2022-11-05T02:56:35.326Z,4.80
2022-11-05T03:00:37.202Z,4.80
2022-11-05T03:04:39.080Z,4.90
2022-11-05T03:08:52.697Z,5.00
2022-11-05T03:13:22.252Z,5.20
2022-11-05T03:17:50.186Z,5.30
2022-11-05T03:22:02.366Z,5.40
2022-11-05T03:26:20.761Z,5.40
2022-11-05T03:30:23.660Z,5.50
2022-11-05T03:34:32.211Z,5.60
2022-11-05T03:38:41.693Z,5.60
2022-11-05T03:42:49.174Z,5.60
2022-11-05T03:46:52.497Z,5.50
2022-11-05T03:51:05.341Z,5.50
2022-11-05T03:55:07.321Z,5.40
2022-11-05T03:59:09.973Z,5.40
2022-11-05T04:03:11.837Z,5.30
2022-11-05T04:07:34.095Z,5.20
2022-11-05T04:11:54.617Z,5.20
2022-11-05T04:16:15.416Z,5.20
2022-11-05T04:20:36.107Z,5.20
2022-11-05T04:24:37.726Z,5.10
2022-11-05T04:28:58.006Z,5.00
2022-11-05T04:33:01.716Z,5.10
2022-11-05T04:37:03.335Z,5.00
2022-11-05T04:41:15.624Z,4.90
2022-11-05T04:45:17.346Z,4.80
2022-11-05T04:49:19.010Z,4.70
2022-11-05T04:53:20.641Z,4.70
2022-11-05T04:57:22.244Z,4.60
2022-11-05T05:01:25.299Z,4.60
2022-11-05T05:05:27.162Z,4.60
2022-11-05T05:09:28.781Z,4.50
2022-11-05T05:13:30.487Z,4.40
2022-11-05T05:17:32.177Z,4.30
2022-11-05T05:21:40.266Z,4.30
2022-11-05T05:25:41.931Z,4.20
2022-11-05T05:29:43.607Z,4.20
2022-11-05T05:33:45.236Z,4.10
2022-11-05T05:37:46.986Z,4.10
2022-11-05T05:41:48.643Z,4.10
2022-11-05T05:45:50.861Z,4.00
2022-11-05T05:49:52.549Z,4.00
2022-11-05T05:53:54.745Z,3.90
2022-11-05T05:57:56.384Z,3.90
2022-11-05T06:01:58.216Z,3.90
2022-11-05T06:06:12.937Z,3.90
2022-11-05T06:10:14.651Z,3.80
2022-11-05T06:14:16.382Z,3.80
2022-11-05T06:18:18.165Z,3.70
2022-11-05T06:22:19.757Z,3.70
2022-11-05T06:26:21.438Z,3.70
2022-11-05T06:30:23.982Z,3.60
2022-11-05T06:34:25.605Z,3.60
2022-11-05T06:38:29.121Z,3.60
2022-11-05T06:42:30.806Z,3.60
2022-11-05T06:46:32.449Z,3.50
2022-11-05T06:50:34.076Z,3.60
2022-11-05T06:54:35.744Z,3.50
2022-11-05T06:58:37.501Z,3.60
2022-11-05T07:02:39.117Z,3.50
2022-11-05T07:06:40.781Z,3.60
2022-11-05T07:10:42.449Z,3.60
2022-11-05T07:14:44.068Z,3.60
2022-11-05T07:18:45.673Z,3.60
2022-11-05T07:22:47.333Z,3.60
2022-11-05T07:26:49.495Z,3.70
2022-11-05T07:30:51.321Z,3.80
2022-11-05T07:34:52.968Z,3.80
2022-11-05T07:38:59.955Z,3.80
2022-11-05T07:43:02.436Z,3.90
2022-11-05T07:47:04.107Z,3.90
2022-11-05T07:51:05.777Z,4.00
2022-11-05T07:55:07.992Z,4.00
2022-11-05T07:59:09.609Z,4.10
2022-11-05T08:03:17.346Z,4.20
2022-11-05T08:07:19.338Z,4.40
2022-11-05T08:11:20.939Z,4.80
2022-11-05T08:15:23.650Z,5.00
2022-11-05T08:19:25.300Z,5.20
2022-11-05T08:23:28.028Z,5.50
2022-11-05T08:27:29.660Z,5.70
2022-11-05T08:31:31.845Z,5.90
2022-11-05T08:35:35.013Z,6.10
2022-11-05T08:39:36.654Z,6.30
2022-11-05T08:43:38.281Z,6.50
2022-11-05T08:47:39.946Z,6.60
2022-11-05T08:51:43.336Z,6.80
2022-11-05T08:55:47.435Z,6.90
2022-11-05T08:59:49.066Z,7.10
2022-11-05T09:03:51.921Z,7.20
2022-11-05T09:07:59.434Z,7.40
2022-11-05T09:12:12.382Z,7.30
2022-11-05T09:16:20.737Z,7.50
2022-11-05T09:20:22.821Z,7.60
2022-11-05T09:24:24.484Z,7.70
2022-11-05T09:28:26.286Z,7.80
2022-11-05T09:32:27.949Z,7.80
2022-11-05T09:36:29.578Z,8.60
2022-11-05T09:40:35.797Z,9.40
2022-11-05T09:44:41.377Z,10.10
2022-11-05T09:48:47.876Z,10.00
2022-11-05T09:52:49.860Z,9.90
2022-11-05T09:56:53.650Z,9.80
2022-11-05T10:00:56.260Z,9.80
2022-11-05T10:05:09.402Z,9.80
2022-11-05T10:09:26.465Z,9.60
2022-11-05T10:13:42.251Z,9.50
2022-11-05T10:17:53.691Z,9.70
2022-11-05T10:22:16.669Z,9.60
2022-11-05T10:26:23.787Z,9.70
2022-11-05T10:30:25.591Z,9.60
2022-11-05T10:34:33.554Z,9.80
2022-11-05T10:38:35.365Z,9.80
2022-11-05T10:43:08.372Z,10.00
2022-11-05T10:47:31.251Z,10.10
2022-11-05T10:51:34.077Z,10.20
2022-11-05T10:55:41.028Z,10.40
2022-11-05T10:59:42.640Z,10.40
2022-11-05T11:03:51.010Z,10.70
2022-11-05T11:07:57.524Z,10.90
2022-11-05T11:12:03.926Z,11.00
2022-11-05T11:16:23.491Z,11.10
2022-11-05T11:20:32.406Z,11.10
2022-11-05T11:24:45.676Z,11.20
2022-11-05T11:29:14.037Z,11.30
2022-11-05T11:33:21.663Z,11.40
2022-11-05T11:37:30.125Z,11.40
2022-11-05T11:41:36.409Z,11.50
2022-11-05T11:45:46.678Z,11.60
2022-11-05T11:49:56.957Z,11.60
2022-11-05T11:54:00.788Z,11.50
2022-11-05T11:58:07.862Z,11.50
2022-11-05T12:02:23.846Z,11.60
2022-11-05T12:07:03.648Z,11.60
2022-11-05T12:11:27.899Z,11.60
2022-11-05T12:15:41.214Z,11.60
2022-11-05T12:20:09.661Z,11.70
2022-11-05T12:24:45.033Z,11.70
2022-11-05T12:29:18.918Z,11.80
2022-11-05T12:33:31.815Z,11.80
2022-11-05T12:37:55.339Z,11.90
2022-11-05T12:42:22.336Z,11.90
2022-11-05T12:46:45.196Z,11.90
2022-11-05T12:51:02.164Z,12.00
2022-11-05T12:55:16.622Z,12.10
2022-11-05T12:59:33.588Z,12.10
2022-11-05T13:03:52.135Z,12.00
2022-11-05T13:08:07.516Z,11.90
2022-11-05T13:12:14.806Z,11.80
2022-11-05T13:16:34.872Z,11.70
2022-11-05T13:20:40.068Z,11.70
2022-11-05T13:24:55.296Z,11.70
2022-11-05T13:29:15.685Z,11.60
2022-11-05T13:33:17.272Z,11.70
2022-11-05T13:37:44.425Z,11.80
2022-11-05T13:42:13.295Z,11.70
2022-11-05T13:46:49.805Z,11.70
2022-11-05T13:51:07.320Z,11.70
2022-11-05T13:55:26.885Z,11.60
2022-11-05T13:59:57.120Z,11.50
2022-11-05T14:03:58.815Z,11.40
2022-11-05T14:08:15.494Z,11.50
2022-11-05T14:12:28.135Z,11.40
2022-11-05T14:16:49.393Z,11.50
2022-11-05T14:20:59.913Z,11.40
2022-11-05T14:25:22.853Z,11.40
2022-11-05T14:29:25.044Z,11.30
2022-11-05T14:33:26.612Z,11.20
2022-11-05T14:37:32.101Z,11.10
2022-11-05T14:42:02.387Z,11.10
2022-11-05T14:46:08.948Z,11.10
2022-11-05T14:50:19.509Z,11.10
2022-11-05T14:54:39.809Z,11.10
2022-11-05T14:58:43.578Z,11.00
2022-11-05T15:02:57.601Z,11.00
2022-11-05T15:07:01.961Z,11.00
2022-11-05T15:11:15.904Z,10.90
2022-11-05T15:15:27.510Z,10.80
2022-11-05T15:19:30.628Z,10.80
2022-11-05T15:23:40.204Z,10.70
2022-11-05T15:28:01.521Z,10.70
2022-11-05T15:32:03.272Z,10.70
2022-11-05T15:36:29.239Z,10.60
2022-11-05T15:40:32.938Z,10.60
2022-11-05T15:44:40.445Z,10.50
2022-11-05T15:48:50.781Z,10.40
2022-11-05T15:52:54.566Z,10.40
2022-11-05T15:56:58.335Z,10.30
2022-11-05T16:00:59.977Z,10.30
2022-11-05T16:05:09.225Z,10.20
2022-11-05T16:09:31.897Z,10.20
2022-11-05T16:13:39.147Z,10.30
2022-11-05T16:17:49.528Z,10.30
2022-11-05T16:21:55.030Z,10.20
2022-11-05T16:25:56.641Z,10.40
2022-11-05T16:29:58.399Z,10.20
2022-11-05T16:34:00.118Z,10.30
2022-11-05T16:38:02.806Z,10.20
2022-11-05T16:42:22.672Z,10.30
2022-11-05T16:46:26.597Z,10.20
2022-11-05T16:50:32.125Z,10.20
2022-11-05T16:54:33.844Z,10.30
2022-11-05T16:58:35.533Z,10.10
2022-11-05T17:02:37.402Z,10.10
2022-11-05T17:06:39.242Z,10.10
2022-11-05T17:10:40.864Z,10.20
2022-11-05T17:14:42.501Z,10.10
2022-11-05T17:18:44.563Z,10.20
2022-11-05T17:22:46.196Z,10.20
2022-11-05T17:26:47.881Z,10.10
2022-11-05T17:30:52.888Z,10.10
2022-11-05T17:34:54.913Z,10.00
2022-11-05T17:38:56.536Z,10.10
2022-11-05T17:42:58.532Z,10.20
2022-11-05T17:47:00.185Z,10.10
2022-11-05T17:51:02.328Z,10.10
2022-11-05T17:55:06.171Z,10.00
2022-11-05T17:59:07.879Z,10.10
2022-11-05T18:03:10.827Z,10.20
2022-11-05T18:07:14.826Z,10.10
2022-11-05T18:11:16.566Z,10.10
2022-11-05T18:15:18.369Z,10.00
2022-11-05T18:19:19.955Z,10.00
2022-11-05T18:23:21.606Z,10.00
2022-11-05T18:27:27.355Z,10.00
2022-11-05T18:31:29.062Z,10.00
2022-11-05T18:35:30.777Z,10.00
2022-11-05T18:39:32.433Z,10.10
2022-11-05T18:43:34.128Z,10.10
2022-11-05T18:47:35.847Z,10.00
2022-11-05T18:51:37.633Z,10.00
2022-11-05T18:55:40.715Z,9.90
2022-11-05T18:59:46.476Z,9.90
2022-11-05T19:03:51.082Z,9.90
2022-11-05T19:07:52.902Z,9.90
2022-11-05T19:11:56.932Z,10.00
2022-11-05T19:15:58.521Z,10.00
2022-11-05T19:20:00.661Z,10.10
2022-11-05T19:24:03.129Z,9.90
2022-11-05T19:28:05.063Z,9.80
2022-11-05T19:32:06.837Z,9.80
2022-11-05T19:36:09.451Z,9.80
2022-11-05T19:40:11.900Z,9.80
2022-11-05T19:44:13.496Z,9.70
2022-11-05T19:48:19.355Z,9.70
2022-11-05T19:52:21.811Z,9.60
2022-11-05T19:56:26.135Z,9.60
2022-11-05T20:00:27.760Z,9.60
2022-11-05T20:04:29.522Z,9.60
2022-11-05T20:08:31.176Z,9.40
2022-11-05T20:12:33.106Z,9.30
2022-11-05T20:16:40.223Z,9.30
2022-11-05T20:20:45.300Z,9.20
2022-11-05T20:24:46.902Z,9.20
2022-11-05T20:28:48.558Z,9.30
2022-11-05T20:32:57.599Z,9.30
2022-11-05T20:36:59.600Z,9.40
2022-11-05T20:41:09.765Z,9.40
2022-11-05T20:45:11.772Z,9.30
2022-11-05T20:49:13.441Z,9.40
2022-11-05T20:53:15.078Z,9.30
2022-11-05T20:57:16.721Z,9.30
2022-11-05T21:01:19.077Z,9.30
2022-11-05T21:05:20.865Z,9.30
2022-11-05T21:09:22.554Z,9.40
2022-11-05T21:13:24.949Z,9.20
2022-11-05T21:17:26.563Z,9.30
2022-11-05T21:21:28.352Z,9.20
2022-11-05T21:25:29.978Z,9.30
2022-11-05T21:29:31.589Z,9.20
2022-11-05T21:33:33.618Z,9.20
2022-11-05T21:37:35.223Z,9.10
2022-11-05T21:41:36.965Z,8.90
2022-11-05T21:45:40.315Z,8.90
2022-11-05T21:49:41.947Z,8.90
2022-11-05T21:54:02.154Z,9.00
2022-11-05T21:58:33.773Z,8.90
2022-11-05T22:02:35.894Z,8.90
2022-11-05T22:06:37.607Z,9.00
2022-11-05T22:10:39.344Z,9.10
2022-11-05T22:14:41.424Z,9.00
2022-11-05T22:18:43.036Z,8.90
2022-11-05T22:22:45.439Z,8.80
2022-11-05T22:26:47.343Z,8.70
2022-11-05T22:30:48.946Z,8.80
2022-11-05T22:34:50.618Z,8.60
2022-11-05T22:38:52.314Z,8.60
2022-11-05T22:42:53.930Z,8.50
2022-11-05T22:46:56.014Z,8.60
2022-11-05T22:51:03.853Z,8.40
2022-11-05T22:55:06.116Z,8.40
2022-11-05T22:59:12.315Z,8.50
2022-11-05T23:03:14.150Z,8.40
2022-11-05T23:07:34.597Z,8.30
2022-11-05T23:11:39.246Z,8.30
2022-11-05T23:15:59.499Z,8.30
2022-11-05T23:20:30.599Z,8.30
2022-11-05T23:24:32.213Z,8.40
2022-11-05T23:28:33.809Z,8.40
2022-11-05T23:32:35.985Z,8.30
2022-11-05T23:36:56.162Z,8.20
2022-11-05T23:41:20.750Z,8.20
2022-11-05T23:45:41.139Z,8.00
2022-11-05T23:49:42.771Z,7.90
2022-11-05T23:53:44.379Z,7.90
2022-11-05T23:57:46.137Z,7.90
